createdAt,value
2018-08-19T00:00:53.718Z,14.07
2018-08-19T00:03:21.498Z,14.00
2018-08-19T00:05:49.144Z,14.83
2018-08-19T00:08:16.750Z,14.23
2018-08-19T00:10:53.085Z,15.17
2018-08-19T00:13:20.578Z,14.33
2018-08-19T00:15:48.118Z,15.53
2018-08-19T00:18:15.649Z,13.90
2018-08-19T00:20:43.265Z,14.70
2018-08-19T00:23:10.792Z,15.07
2018-08-19T00:25:40.832Z,15.53
2018-08-19T00:28:09.662Z,15.27
2018-08-19T00:30:37.329Z,16.10
2018-08-19T00:33:05.166Z,14.50
2018-08-19T00:35:32.780Z,14.50
2018-08-19T00:38:00.606Z,15.23
2018-08-19T00:40:28.211Z,15.77
2018-08-19T00:42:55.954Z,15.87
2018-08-19T00:45:23.546Z,15.83
2018-08-19T00:47:51.041Z,16.10
2018-08-19T00:50:20.728Z,14.63
2018-08-19T00:52:48.304Z,14.53
2018-08-19T00:55:15.855Z,15.70
2018-08-19T00:57:45.960Z,16.80
2018-08-19T01:00:13.461Z,16.03
2018-08-19T01:02:40.954Z,15.20
2018-08-19T01:05:08.479Z,15.03
2018-08-19T01:07:35.959Z,16.13
2018-08-19T01:10:03.705Z,17.10
2018-08-19T01:12:31.184Z,17.03
2018-08-19T01:14:58.746Z,16.30
2018-08-19T01:17:31.702Z,16.60
2018-08-19T01:20:08.033Z,16.23
2018-08-19T01:22:37.521Z,16.93
2018-08-19T01:25:05.678Z,17.73
2018-08-19T01:27:35.313Z,17.67
2018-08-19T01:30:07.835Z,18.60
2018-08-19T01:32:35.368Z,19.80
2018-08-19T01:35:02.992Z,18.90
2018-08-19T01:37:30.518Z,18.00
2018-08-19T01:39:58.007Z,19.20
2018-08-19T01:42:25.552Z,21.07
2018-08-19T01:44:53.055Z,19.00
2018-08-19T01:47:21.333Z,18.83
2018-08-19T01:49:48.812Z,20.47
2018-08-19T01:52:16.257Z,18.50
2018-08-19T01:54:43.756Z,19.67
2018-08-19T01:57:11.199Z,19.60
2018-08-19T01:59:38.682Z,19.00
2018-08-19T02:02:06.960Z,18.30
2018-08-19T02:04:45.892Z,17.97
2018-08-19T02:07:14.559Z,18.00
2018-08-19T02:09:57.073Z,18.20
2018-08-19T02:12:27.858Z,19.43
2018-08-19T02:14:55.421Z,18.07
2018-08-19T02:17:22.864Z,19.87
2018-08-19T02:19:50.693Z,17.67
2018-08-19T02:22:18.185Z,19.57
2018-08-19T02:24:45.748Z,18.50
2018-08-19T02:27:13.275Z,19.20
2018-08-19T02:29:40.739Z,17.90
2018-08-19T02:32:09.342Z,19.50
2018-08-19T02:34:41.621Z,19.00
2018-08-19T02:37:15.381Z,19.60
2018-08-19T02:39:45.128Z,19.40
2018-08-19T02:42:20.117Z,19.77
2018-08-19T02:44:47.629Z,19.80
2018-08-19T02:47:15.208Z,18.47
2018-08-19T02:49:42.788Z,20.77
2018-08-19T02:52:13.080Z,19.10
2018-08-19T02:54:40.588Z,19.53
2018-08-19T02:57:08.332Z,19.80
2018-08-19T02:59:35.909Z,20.93
2018-08-19T03:02:03.524Z,20.50
2018-08-19T03:04:31.721Z,20.87
2018-08-19T03:06:59.220Z,20.97
2018-08-19T03:09:26.727Z,22.67
2018-08-19T03:12:05.800Z,22.87
2018-08-19T03:14:34.504Z,21.07
2018-08-19T03:17:02.134Z,20.77
2018-08-19T03:19:29.638Z,22.93
2018-08-19T03:21:59.960Z,23.10
2018-08-19T03:24:27.560Z,20.13
2018-08-19T03:26:55.444Z,21.87
2018-08-19T03:29:22.962Z,22.57
2018-08-19T03:31:57.856Z,20.70
2018-08-19T03:34:26.404Z,21.70
2018-08-19T03:36:54.551Z,19.97
2018-08-19T03:39:23.727Z,22.60
2018-08-19T03:41:51.213Z,22.60
2018-08-19T03:44:19.456Z,21.23
2018-08-19T03:46:46.964Z,23.33
2018-08-19T03:49:14.465Z,22.70
2018-08-19T03:51:42.276Z,21.43
2018-08-19T03:54:09.752Z,21.87
2018-08-19T03:56:37.240Z,22.23
2018-08-19T03:59:06.323Z,22.97
2018-08-19T04:01:42.725Z,22.73
2018-08-19T04:04:11.657Z,23.60
2018-08-19T04:06:39.897Z,22.90
2018-08-19T04:09:07.532Z,23.03
2018-08-19T04:11:35.021Z,22.50
2018-08-19T04:14:02.879Z,23.00
2018-08-19T04:16:30.356Z,23.50
2018-08-19T04:19:05.092Z,23.13
2018-08-19T04:21:32.547Z,20.73
2018-08-19T04:24:00.130Z,23.53
2018-08-19T04:26:28.694Z,24.33
2018-08-19T04:28:56.136Z,23.80
2018-08-19T04:31:24.091Z,24.07
2018-08-19T04:33:52.075Z,23.17
2018-08-19T04:36:20.728Z,25.10
2018-08-19T04:38:48.269Z,24.97
2018-08-19T04:41:16.171Z,24.67
2018-08-19T04:43:44.429Z,23.93
2018-08-19T04:46:12.050Z,25.00
2018-08-19T04:48:39.712Z,21.73
2018-08-19T04:51:07.453Z,24.70
2018-08-19T04:53:35.188Z,24.53
2018-08-19T04:56:02.954Z,26.23
2018-08-19T04:58:30.612Z,23.30
2018-08-19T05:00:58.324Z,24.00
2018-08-19T05:03:25.955Z,25.67
2018-08-19T05:05:53.628Z,25.80
2018-08-19T05:08:21.395Z,25.10
2018-08-19T05:10:48.964Z,25.70
2018-08-19T05:13:16.459Z,25.40
2018-08-19T05:15:44.060Z,25.07
2018-08-19T05:18:11.570Z,26.83
2018-08-19T05:20:39.092Z,23.60
2018-08-19T05:23:07.281Z,21.40
2018-08-19T05:25:43.409Z,25.80
2018-08-19T05:28:10.893Z,26.47
2018-08-19T05:30:38.409Z,25.13
2018-08-19T05:33:05.931Z,25.87
2018-08-19T05:35:34.305Z,27.43
2018-08-19T05:38:02.704Z,26.07
2018-08-19T05:40:31.133Z,25.00
2018-08-19T05:42:58.633Z,24.80
2018-08-19T05:45:26.086Z,25.77
2018-08-19T05:48:05.025Z,25.10
2018-08-19T05:50:32.864Z,24.77
2018-08-19T05:53:00.416Z,26.07
2018-08-19T05:55:28.085Z,24.87
2018-08-19T05:57:55.481Z,25.77
2018-08-19T06:00:24.449Z,26.57
2018-08-19T06:02:55.393Z,28.00
2018-08-19T06:05:24.218Z,26.63
2018-08-19T06:07:57.652Z,27.40
2018-08-19T06:10:25.456Z,24.80
2018-08-19T06:12:52.966Z,25.20
2018-08-19T06:15:20.489Z,26.20
2018-08-19T06:17:48.026Z,26.87
2018-08-19T06:20:15.495Z,26.90
2018-08-19T06:22:42.985Z,27.63
2018-08-19T06:25:11.252Z,27.43
2018-08-19T06:27:48.659Z,27.07
2018-08-19T06:30:17.056Z,26.77
2018-08-19T06:32:44.663Z,27.77
2018-08-19T06:35:12.258Z,24.70
2018-08-19T06:37:39.805Z,28.83
2018-08-19T06:40:09.049Z,25.40
2018-08-19T06:42:36.482Z,29.50
2018-08-19T06:45:04.563Z,27.67
2018-08-19T06:47:32.160Z,28.13
2018-08-19T06:50:00.589Z,27.23
2018-08-19T06:52:29.045Z,26.40
2018-08-19T06:54:56.863Z,28.07
2018-08-19T06:57:27.676Z,26.67
2018-08-19T06:59:55.552Z,26.07
2018-08-19T07:02:27.292Z,25.73
2018-08-19T07:04:54.823Z,27.63
2018-08-19T07:07:23.764Z,25.60
2018-08-19T07:09:52.488Z,26.60
2018-08-19T07:12:21.678Z,23.53
2018-08-19T07:14:49.658Z,26.17
2018-08-19T07:17:18.056Z,24.10
2018-08-19T07:19:46.656Z,23.57
2018-08-19T07:22:16.889Z,26.37
2018-08-19T07:24:44.587Z,23.70
2018-08-19T07:27:12.314Z,27.33
2018-08-19T07:29:39.959Z,22.93
2018-08-19T07:32:08.665Z,24.47
2018-08-19T07:34:36.128Z,24.93
2018-08-19T07:37:03.772Z,28.00
2018-08-19T07:39:44.348Z,24.23
2018-08-19T07:42:12.076Z,24.63
2018-08-19T07:44:39.661Z,23.87
2018-08-19T07:47:07.248Z,25.07
2018-08-19T07:49:34.825Z,23.07
2018-08-19T07:52:02.402Z,24.13
2018-08-19T07:54:29.941Z,23.90
2018-08-19T07:56:57.686Z,25.00
2018-08-19T07:59:25.243Z,22.70
2018-08-19T08:01:52.721Z,19.33
2018-08-19T08:04:25.810Z,22.40
2018-08-19T08:06:54.296Z,21.37
2018-08-19T08:09:22.228Z,23.30
2018-08-19T08:11:49.739Z,22.93
2018-08-19T08:14:17.296Z,22.47
2018-08-19T08:16:55.559Z,23.30
2018-08-19T08:19:24.296Z,23.30
2018-08-19T08:21:56.228Z,19.43
2018-08-19T08:24:23.740Z,21.43
2018-08-19T08:26:55.258Z,21.47
2018-08-19T08:29:23.521Z,21.40
2018-08-19T08:31:55.391Z,16.40
2018-08-19T08:34:23.988Z,22.57
2018-08-19T08:36:55.135Z,21.40
2018-08-19T08:39:23.436Z,19.73
2018-08-19T08:41:51.281Z,19.77
2018-08-19T08:44:18.857Z,17.73
2018-08-19T08:46:46.404Z,18.70
2018-08-19T08:49:13.860Z,19.33
2018-08-19T08:51:41.378Z,17.70
2018-08-19T08:54:08.901Z,19.50
2018-08-19T08:56:36.779Z,19.67
2018-08-19T08:59:04.265Z,15.27
2018-08-19T09:01:31.936Z,19.87
2018-08-19T09:03:59.512Z,18.83
2018-08-19T09:06:28.527Z,19.67
2018-08-19T09:08:57.028Z,19.50
2018-08-19T09:11:25.107Z,18.33
2018-08-19T09:13:53.241Z,17.80
2018-08-19T09:16:21.060Z,16.10
2018-08-19T09:18:48.873Z,16.50
2018-08-19T09:21:16.504Z,14.97
2018-08-19T09:23:44.004Z,14.03
2018-08-19T09:26:11.505Z,13.50
2018-08-19T09:28:39.020Z,13.30
2018-08-19T09:31:06.493Z,12.77
2018-08-19T09:33:33.919Z,13.03
2018-08-19T09:36:01.367Z,13.30
2018-08-19T09:38:31.420Z,12.23
2018-08-19T09:40:58.914Z,11.97
2018-08-19T09:43:28.213Z,10.13
2018-08-19T09:45:55.879Z,11.20
2018-08-19T09:48:23.474Z,9.90
2018-08-19T09:50:50.916Z,10.20
2018-08-19T09:53:18.356Z,9.43
2018-08-19T09:55:58.153Z,12.33
2018-08-19T09:58:34.060Z,10.17
2018-08-19T10:01:07.151Z,9.90
2018-08-19T10:03:35.230Z,10.13
2018-08-19T10:06:03.380Z,9.93
2018-08-19T10:08:31.082Z,10.33
2018-08-19T10:10:58.722Z,9.27
2018-08-19T10:13:26.370Z,11.00
2018-08-19T10:15:54.041Z,11.03
2018-08-19T10:18:21.728Z,10.97
2018-08-19T10:20:49.336Z,9.30
2018-08-19T10:23:17.023Z,10.20
2018-08-19T10:25:44.600Z,9.70
2018-08-19T10:28:12.151Z,9.80
2018-08-19T10:30:49.257Z,8.77
2018-08-19T10:33:19.452Z,11.00
2018-08-19T10:35:47.103Z,9.93
2018-08-19T10:38:15.425Z,10.57
2018-08-19T10:40:46.103Z,10.53
2018-08-19T10:43:13.584Z,10.37
2018-08-19T10:45:42.461Z,9.60
2018-08-19T10:48:11.352Z,10.20
2018-08-19T10:50:38.880Z,10.60
2018-08-19T10:53:14.653Z,10.33
2018-08-19T10:55:42.364Z,11.10
2018-08-19T10:58:09.883Z,10.57
2018-08-19T11:00:37.536Z,10.00
2018-08-19T11:03:21.903Z,10.77
2018-08-19T11:05:51.025Z,9.00
2018-08-19T11:08:18.627Z,10.40
2018-08-19T11:10:46.369Z,10.30
2018-08-19T11:13:20.343Z,9.93
2018-08-19T11:15:49.207Z,9.47
2018-08-19T11:18:43.608Z,7.83
2018-08-19T11:21:13.292Z,8.03
2018-08-19T11:23:42.197Z,8.30
2018-08-19T11:26:10.378Z,9.13
2018-08-19T11:28:40.889Z,8.50
2018-08-19T11:31:20.652Z,7.80
2018-08-19T11:33:48.588Z,7.70
2018-08-19T11:36:16.155Z,8.03
2018-08-19T11:38:47.776Z,7.13
2018-08-19T11:41:15.605Z,6.83
2018-08-19T11:43:44.334Z,7.83
2018-08-19T11:46:12.014Z,7.30
2018-08-19T11:48:40.307Z,7.23
2018-08-19T11:51:08.109Z,8.70
2018-08-19T11:53:35.665Z,7.50
2018-08-19T11:56:03.452Z,7.50
2018-08-19T11:58:43.786Z,7.17
2018-08-19T12:01:14.736Z,6.50
2018-08-19T12:03:54.409Z,7.57
2018-08-19T12:06:23.767Z,8.23
2018-08-19T12:08:51.737Z,7.27
2018-08-19T12:11:20.253Z,6.80
2018-08-19T12:13:52.993Z,7.30
2018-08-19T12:16:22.833Z,7.63
2018-08-19T12:18:50.759Z,6.93
2018-08-19T12:21:18.973Z,6.90
2018-08-19T12:23:47.227Z,6.37
2018-08-19T12:26:15.034Z,6.40
2018-08-19T12:28:42.723Z,6.43
2018-08-19T12:31:12.660Z,7.03
2018-08-19T12:33:40.309Z,6.50
2018-08-19T12:36:08.056Z,6.87
2018-08-19T12:38:36.595Z,6.90
2018-08-19T12:41:04.631Z,7.50
2018-08-19T12:43:33.693Z,6.60
2018-08-19T12:46:01.933Z,7.10
2018-08-19T12:48:29.741Z,6.67
2018-08-19T12:51:03.443Z,7.40
2018-08-19T12:53:32.001Z,6.83
2018-08-19T12:55:59.930Z,7.27
2018-08-19T12:58:27.707Z,7.33
2018-08-19T13:00:55.443Z,7.17
2018-08-19T13:03:26.256Z,6.70
2018-08-19T13:06:01.375Z,7.50
2018-08-19T13:08:29.139Z,7.27
2018-08-19T13:11:00.626Z,6.93
2018-08-19T13:13:28.560Z,8.00
2018-08-19T13:15:56.323Z,7.23
2018-08-19T13:18:33.513Z,7.17
2018-08-19T13:21:07.143Z,7.33
2018-08-19T13:23:34.991Z,6.80
2018-08-19T13:26:02.656Z,7.10
2018-08-19T13:28:30.676Z,6.97
2018-08-19T13:30:58.493Z,7.93
2018-08-19T13:33:26.554Z,6.77
2018-08-19T13:35:54.191Z,7.50
2018-08-19T13:38:33.753Z,7.80
2018-08-19T13:41:03.282Z,7.57
2018-08-19T13:43:30.923Z,8.27
2018-08-19T13:45:58.614Z,6.83
2018-08-19T13:48:26.267Z,7.43
2018-08-19T13:50:54.005Z,8.50
2018-08-19T13:53:22.101Z,7.20
2018-08-19T13:55:49.783Z,8.27
2018-08-19T13:58:17.443Z,7.30
2018-08-19T14:00:45.067Z,6.70
2018-08-19T14:03:12.674Z,7.73
2018-08-19T14:05:40.396Z,7.30
2018-08-19T14:08:08.189Z,7.20
2018-08-19T14:10:36.122Z,7.43
2018-08-19T14:13:03.946Z,7.67
2018-08-19T14:15:32.845Z,6.30
2018-08-19T14:18:00.613Z,6.93
2018-08-19T14:20:28.310Z,6.40
2018-08-19T14:22:56.047Z,6.03
2018-08-19T14:25:23.773Z,6.40
2018-08-19T14:27:51.737Z,6.40
2018-08-19T14:30:20.211Z,6.43
2018-08-19T14:32:48.367Z,5.97
2018-08-19T14:35:16.211Z,6.40
2018-08-19T14:37:43.921Z,6.57
2018-08-19T14:40:14.966Z,6.23
2018-08-19T14:42:42.485Z,6.73
2018-08-19T14:45:10.008Z,6.90
2018-08-19T14:47:37.466Z,7.37
2018-08-19T14:50:09.353Z,5.80
2018-08-19T14:52:36.889Z,5.73
2018-08-19T14:55:05.183Z,5.70
2018-08-19T14:57:32.674Z,6.40
2018-08-19T15:00:00.153Z,6.67
2018-08-19T15:02:28.188Z,6.10
2018-08-19T15:04:55.677Z,6.17
2018-08-19T15:07:23.200Z,5.47
2018-08-19T15:09:52.197Z,6.43
2018-08-19T15:12:22.142Z,6.37
2018-08-19T15:14:50.015Z,6.23
2018-08-19T15:17:17.537Z,5.33
2018-08-19T15:19:48.310Z,5.93
2018-08-19T15:22:16.181Z,6.70
2018-08-19T15:24:43.760Z,5.40
2018-08-19T15:27:11.363Z,5.80
2018-08-19T15:29:39.932Z,5.70
2018-08-19T15:32:07.521Z,5.33
2018-08-19T15:34:35.097Z,5.30
2018-08-19T15:37:02.904Z,6.33
2018-08-19T15:39:30.441Z,5.60
2018-08-19T15:41:57.948Z,5.57
2018-08-19T15:44:25.472Z,6.20
2018-08-19T15:46:52.997Z,6.73
2018-08-19T15:49:21.691Z,6.80
2018-08-19T15:51:49.292Z,6.13
2018-08-19T15:54:16.748Z,5.27
2018-08-19T15:56:44.252Z,5.40
2018-08-19T15:59:11.809Z,5.70
2018-08-19T16:01:39.808Z,5.53
2018-08-19T16:04:16.728Z,6.30
2018-08-19T16:06:45.660Z,6.13
2018-08-19T16:09:14.771Z,5.93
2018-08-19T16:11:42.721Z,6.17
2018-08-19T16:14:16.975Z,6.00
2018-08-19T16:16:44.712Z,6.20
2018-08-19T16:19:12.195Z,6.20
2018-08-19T16:21:39.681Z,7.23
2018-08-19T16:24:07.964Z,7.00
2018-08-19T16:26:35.882Z,7.57
2018-08-19T16:29:04.048Z,7.10
2018-08-19T16:31:31.687Z,6.93
2018-08-19T16:33:59.199Z,6.50
2018-08-19T16:36:26.873Z,6.80
2018-08-19T16:38:55.092Z,7.37
2018-08-19T16:41:22.739Z,7.20
2018-08-19T16:43:50.280Z,6.10
2018-08-19T16:46:17.783Z,7.13
2018-08-19T16:48:45.288Z,8.10
2018-08-19T16:51:12.908Z,6.97
2018-08-19T16:53:40.707Z,7.03
2018-08-19T16:56:08.337Z,6.93
2018-08-19T16:58:35.824Z,6.93
2018-08-19T17:01:03.878Z,6.60
2018-08-19T17:03:34.495Z,6.30
2018-08-19T17:06:02.543Z,8.07
2018-08-19T17:08:30.066Z,8.33
2018-08-19T17:10:57.729Z,6.30
2018-08-19T17:13:25.732Z,6.23
2018-08-19T17:15:53.242Z,6.07
2018-08-19T17:18:20.823Z,7.50
2018-08-19T17:20:48.809Z,6.33
2018-08-19T17:23:18.936Z,5.80
2018-08-19T17:25:46.440Z,6.30
2018-08-19T17:28:18.087Z,7.10
2018-08-19T17:30:46.608Z,7.50
2018-08-19T17:33:14.103Z,6.73
2018-08-19T17:35:44.383Z,5.77
2018-08-19T17:38:11.969Z,6.07
2018-08-19T17:40:39.429Z,6.77
2018-08-19T17:43:07.182Z,6.37
2018-08-19T17:45:34.652Z,6.63
2018-08-19T17:48:02.131Z,5.50
2018-08-19T17:50:29.648Z,6.40
2018-08-19T17:52:58.288Z,6.00
2018-08-19T17:55:26.409Z,6.00
2018-08-19T17:57:55.024Z,7.00
2018-08-19T18:00:23.011Z,6.27
2018-08-19T18:02:50.530Z,6.83
2018-08-19T18:05:18.273Z,6.20
2018-08-19T18:07:49.375Z,6.80
2018-08-19T18:10:16.886Z,5.97
2018-08-19T18:12:44.411Z,7.00
2018-08-19T18:15:12.331Z,6.43
2018-08-19T18:17:40.899Z,6.90
2018-08-19T18:20:25.920Z,7.07
2018-08-19T18:22:54.667Z,5.80
2018-08-19T18:25:22.304Z,6.67
2018-08-19T18:27:49.780Z,6.57
2018-08-19T18:30:23.723Z,7.60
2018-08-19T18:32:51.428Z,6.47
2018-08-19T18:35:19.771Z,6.77
2018-08-19T18:37:47.299Z,7.37
2018-08-19T18:40:19.979Z,6.33
2018-08-19T18:42:47.475Z,6.40
2018-08-19T18:45:14.980Z,7.00
2018-08-19T18:47:49.752Z,6.97
2018-08-19T18:50:18.448Z,6.67
2018-08-19T18:52:45.932Z,6.60
2018-08-19T18:55:13.480Z,7.43
2018-08-19T18:57:46.902Z,8.27
2018-08-19T19:00:14.517Z,7.50
2018-08-19T19:03:13.374Z,6.73
2018-08-19T19:05:43.520Z,7.00
2018-08-19T19:08:13.112Z,6.90
2018-08-19T19:10:56.084Z,7.00
2018-08-19T19:13:25.174Z,7.53
2018-08-19T19:15:52.958Z,6.40
2018-08-19T19:18:20.903Z,7.03
2018-08-19T19:20:56.709Z,7.40
2018-08-19T19:23:30.415Z,6.80
2018-08-19T19:25:58.901Z,8.00
2018-08-19T19:28:28.306Z,6.97
2018-08-19T19:31:02.067Z,7.00
2018-08-19T19:33:30.231Z,7.27
2018-08-19T19:36:04.177Z,7.10
2018-08-19T19:39:32.561Z,6.70
2018-08-19T19:42:19.481Z,7.30
2018-08-19T19:44:47.483Z,6.80
2018-08-19T19:47:15.266Z,8.07
2018-08-19T19:49:53.544Z,7.00
2018-08-19T19:52:21.454Z,7.20
2018-08-19T19:54:49.354Z,6.77
2018-08-19T19:57:17.137Z,8.00
2018-08-19T19:59:44.823Z,6.80
2018-08-19T20:02:20.460Z,7.60
2018-08-19T20:04:48.372Z,7.03
2018-08-19T20:07:16.074Z,7.50
2018-08-19T20:09:43.777Z,7.27
2018-08-19T20:12:17.363Z,7.40
2018-08-19T20:14:48.534Z,8.40
2018-08-19T20:17:16.449Z,7.13
2018-08-19T20:19:44.492Z,8.40
2018-08-19T20:22:14.022Z,7.77
2018-08-19T20:24:41.849Z,8.30
2018-08-19T20:27:09.728Z,8.33
2018-08-19T20:29:37.634Z,8.27
2018-08-19T20:32:05.449Z,8.10
2018-08-19T20:34:40.121Z,7.93
2018-08-19T20:37:07.904Z,7.80
2018-08-19T20:39:35.912Z,7.83
2018-08-19T20:42:05.053Z,8.83
2018-08-19T20:44:32.750Z,8.97
2018-08-19T20:47:19.403Z,9.03
2018-08-19T20:49:49.289Z,9.50
2018-08-19T20:52:18.124Z,8.40
2018-08-19T20:54:45.907Z,10.57
2018-08-19T20:57:13.655Z,10.33
2018-08-19T20:59:41.396Z,9.67
2018-08-19T21:02:09.208Z,9.57
2018-08-19T21:04:36.869Z,8.93
2018-08-19T21:07:05.583Z,9.80
2018-08-19T21:09:34.690Z,9.00
2018-08-19T21:12:02.619Z,9.30
2018-08-19T21:14:30.675Z,8.97
2018-08-19T21:17:01.047Z,10.43
2018-08-19T21:19:29.641Z,9.70
2018-08-19T21:21:57.475Z,9.47
2018-08-19T21:24:25.079Z,8.23
2018-08-19T21:26:59.173Z,11.20
2018-08-19T21:29:27.513Z,9.90
2018-08-19T21:31:55.343Z,10.53
2018-08-19T21:34:22.990Z,9.67
2018-08-19T21:36:50.743Z,10.73
2018-08-19T21:39:18.460Z,9.83
2018-08-19T21:41:51.650Z,10.63
2018-08-19T21:44:19.502Z,9.70
2018-08-19T21:46:47.512Z,9.37
2018-08-19T21:49:15.633Z,10.40
2018-08-19T21:51:43.932Z,10.53
2018-08-19T21:54:14.269Z,9.27
2018-08-19T21:56:42.468Z,10.77
2018-08-19T21:59:30.253Z,11.53
2018-08-19T22:01:59.370Z,10.70
2018-08-19T22:04:28.093Z,10.50
2018-08-19T22:06:56.190Z,10.93
2018-08-19T22:09:32.692Z,11.57
2018-08-19T22:12:01.515Z,11.47
2018-08-19T22:14:30.192Z,11.23
2018-08-19T22:17:14.668Z,12.10
2018-08-19T22:19:42.822Z,11.70
2018-08-19T22:22:10.867Z,12.20
2018-08-19T22:24:39.034Z,11.80
2018-08-19T22:27:16.208Z,14.13
2018-08-19T22:29:44.440Z,12.13
2018-08-19T22:32:12.362Z,11.87
2018-08-19T22:34:42.871Z,11.90
2018-08-19T22:37:11.014Z,11.63
2018-08-19T22:39:38.947Z,11.90
2018-08-19T22:42:06.896Z,13.80
2018-08-19T22:44:34.852Z,12.43
2018-08-19T22:47:02.897Z,11.70
2018-08-19T22:49:30.853Z,11.80
2018-08-19T22:52:23.215Z,12.00
2018-08-19T22:54:53.322Z,12.50
2018-08-19T22:57:21.328Z,12.00
2018-08-19T22:59:52.205Z,11.00
2018-08-19T23:02:20.196Z,11.30
2018-08-19T23:04:48.162Z,11.73
2018-08-19T23:07:16.188Z,11.63
2018-08-19T23:09:44.202Z,11.50
2018-08-19T23:12:12.238Z,11.80
2018-08-19T23:14:51.333Z,12.70
2018-08-19T23:17:19.317Z,11.07
2018-08-19T23:19:49.106Z,12.10
2018-08-19T23:22:17.106Z,10.80
2018-08-19T23:24:45.062Z,11.00
2018-08-19T23:27:13.132Z,11.60
2018-08-19T23:29:41.044Z,11.60
2018-08-19T23:32:08.815Z,11.70
2018-08-19T23:34:36.555Z,10.70
2018-08-19T23:37:04.326Z,10.93
2018-08-19T23:39:32.077Z,11.07
2018-08-19T23:41:59.812Z,10.27
2018-08-19T23:44:27.611Z,11.47
2018-08-19T23:46:55.501Z,11.73
2018-08-19T23:49:23.421Z,10.37
2018-08-19T23:51:51.287Z,10.00
2018-08-19T23:54:19.085Z,11.13
2018-08-19T23:56:46.845Z,11.40
2018-08-19T23:59:19.480Z,11.03
